Time;durP1;ratioP1;P1;durP2;ratioP2;P2;SDS_P1;SDS_P2;PMS_P1;PMS_P2;Temp;Humidity;BMP_temperature;BMP_pressure;BME280_temperature;BME280_humidity;BME280_pressure;Samples;Min_cycle;Max_cycle;Signal;HPM_P1;HPM_P2
2022/04/07 00:00:38;;;;;;;3.50;2.20;;;16.80;53.30;;;;;;4995098;28;20465;-84
2022/04/07 00:03:07;;;;;;;2.50;2.40;;;16.80;53.30;;;;;;4992659;28;20472;-87
2022/04/07 00:05:35;;;;;;;2.90;2.60;;;16.80;53.30;;;;;;4995729;28;20449;-87
2022/04/07 00:08:05;;;;;;;2.67;2.47;;;16.80;53.20;;;;;;4990301;28;20462;-87
2022/04/07 00:21:38;;;;;;;2.50;2.30;;;16.80;53.40;;;;;;5032748;28;20508;-84
2022/04/07 00:27:49;;;;;;;2.60;2.50;;;16.70;53.50;;;;;;5013284;28;20515;-84
2022/04/07 00:30:20;;;;;;;3.73;2.73;;;16.70;53.50;;;;;;5019539;28;20467;-84
2022/04/07 00:32:48;;;;;;;2.60;2.40;;;16.70;53.50;;;;;;5013398;28;20508;-84
2022/04/07 00:35:16;;;;;;;2.80;2.60;;;16.70;53.40;;;;;;5013233;28;20437;-84
2022/04/07 00:37:45;;;;;;;2.80;2.60;;;16.70;53.30;;;;;;5021684;28;20429;-82
2022/04/07 00:40:13;;;;;;;2.37;2.20;;;16.70;53.40;;;;;;5012442;28;20531;-83
2022/04/07 00:42:45;;;;;;;3.43;2.40;;;16.70;53.40;;;;;;5016051;28;20469;-84
2022/04/07 00:45:15;;;;;;;2.60;2.40;;;16.70;53.30;;;;;;5014920;28;20444;-84
2022/04/07 00:47:43;;;;;;;4.70;2.40;;;16.80;53.50;;;;;;5014668;28;20474;-84
2022/04/07 00:50:12;;;;;;;2.67;2.47;;;16.70;53.20;;;;;;5012973;28;20464;-84
2022/04/07 00:52:41;;;;;;;2.40;2.30;;;16.80;53.40;;;;;;5019541;28;20452;-84
2022/04/07 00:55:10;;;;;;;2.60;2.40;;;16.80;53.30;;;;;;5018810;28;20449;-84
2022/04/07 00:57:39;;;;;;;2.50;2.30;;;16.80;53.40;;;;;;5019693;28;20841;-84
2022/04/07 01:00:09;;;;;;;2.53;2.43;;;16.80;53.50;;;;;;5013789;28;20473;-84
2022/04/07 01:02:39;;;;;;;2.77;2.50;;;16.80;53.40;;;;;;5012228;28;20572;-83
2022/04/07 01:05:09;;;;;;;2.50;2.20;;;16.80;53.40;;;;;;5013103;28;20494;-84
2022/04/07 01:07:37;;;;;;;2.47;2.30;;;16.80;53.30;;;;;;5013906;28;20960;-84
2022/04/07 01:10:06;;;;;;;2.43;2.23;;;16.80;53.40;;;;;;5013004;28;20496;-84
2022/04/07 01:12:34;;;;;;;2.43;2.30;;;16.80;53.30;;;;;;5009964;28;20464;-84
2022/04/07 01:15:03;;;;;;;2.97;2.77;;;16.80;53.30;;;;;;5011372;28;20441;-84
2022/04/07 01:17:34;;;;;;;2.97;2.77;;;16.80;53.30;;;;;;5011625;28;20480;-83
2022/04/07 01:20:04;;;;;;;2.50;2.40;;;16.80;53.40;;;;;;5010891;28;20436;-84
2022/04/07 01:22:32;;;;;;;3.03;2.10;;;16.80;53.30;;;;;;5010487;28;20560;-83
2022/04/07 01:25:02;;;;;;;3.17;2.43;;;16.80;53.40;;;;;;5015366;28;20451;-83
2022/04/07 01:27:30;;;;;;;2.50;2.40;;;16.80;53.40;;;;;;5009153;28;20496;-83
2022/04/07 01:30:02;;;;;;;2.73;2.50;;;16.80;53.40;;;;;;5009493;28;20432;-84
2022/04/07 01:32:33;;;;;;;4.97;2.50;;;16.70;53.40;;;;;;5004946;28;20531;-84
2022/04/07 01:35:02;;;;;;;2.80;2.10;;;16.80;53.20;;;;;;5005941;28;20479;-85
2022/04/07 01:37:30;;;;;;;2.37;2.27;;;16.80;53.40;;;;;;5010271;28;20522;-83
2022/04/07 01:39:58;;;;;;;2.40;2.30;;;16.70;53.40;;;;;;5011474;28;20449;-84
2022/04/07 01:42:28;;;;;;;2.50;2.30;;;16.80;53.40;;;;;;5015915;28;20503;-83
2022/04/07 01:44:57;;;;;;;2.00;1.90;;;16.70;53.20;;;;;;5012237;28;20496;-84
2022/04/07 01:47:25;;;;;;;2.03;1.90;;;16.70;53.30;;;;;;5010663;28;20576;-84
2022/04/07 01:49:57;;;;;;;2.30;2.20;;;16.70;53.40;;;;;;5024211;28;20495;-82
2022/04/07 01:52:25;;;;;;;2.70;2.50;;;16.70;54.10;;;;;;5010081;28;20504;-83
2022/04/07 01:54:53;;;;;;;2.47;2.30;;;16.70;53.50;;;;;;5012410;28;20445;-82
2022/04/07 01:57:23;;;;;;;3.83;2.40;;;16.70;53.60;;;;;;5016565;28;20483;-83
2022/04/07 01:59:53;;;;;;;2.40;2.30;;;16.70;53.60;;;;;;5012416;28;20502;-83
2022/04/07 02:02:21;;;;;;;3.80;2.70;;;16.70;53.70;;;;;;5008503;28;20514;-83
2022/04/07 02:04:54;;;;;;;3.20;2.20;;;16.70;53.70;;;;;;5009168;28;20460;-84
2022/04/07 02:07:22;;;;;;;2.30;1.87;;;16.70;53.80;;;;;;5011940;28;20464;-84
2022/04/07 02:09:51;;;;;;;2.63;2.30;;;16.60;53.60;;;;;;5010805;28;20465;-83
2022/04/07 02:12:20;;;;;;;2.37;2.00;;;16.60;53.70;;;;;;5013865;28;20452;-84
2022/04/07 02:14:48;;;;;;;2.57;2.47;;;16.60;53.70;;;;;;5023677;28;20456;-84
2022/04/07 02:17:20;;;;;;;5.90;2.53;;;16.70;53.80;;;;;;5024248;28;20484;-84
2022/04/07 02:20:04;;;;;;;2.30;2.20;;;16.70;53.80;;;;;;5023084;28;20448;-85
2022/04/07 02:22:33;;;;;;;2.57;2.37;;;16.70;53.80;;;;;;5021111;28;20511;-83
2022/04/07 02:25:01;;;;;;;2.70;2.50;;;16.60;53.70;;;;;;5019498;28;20440;-84
2022/04/07 02:27:37;;;;;;;2.43;2.23;;;16.60;53.70;;;;;;5009238;28;20468;-83
2022/04/07 02:30:09;;;;;;;2.40;2.20;;;16.60;53.80;;;;;;5012162;28;20448;-84
2022/04/07 02:32:38;;;;;;;2.13;2.03;;;16.60;53.70;;;;;;5012671;28;20445;-82
2022/04/07 02:35:08;;;;;;;2.47;2.20;;;16.60;53.70;;;;;;5000295;28;20548;-82
2022/04/07 02:37:36;;;;;;;2.47;2.30;;;16.60;53.80;;;;;;5000011;28;20861;-82
2022/04/07 02:40:05;;;;;;;4.70;2.43;;;16.60;53.80;;;;;;5000683;28;20492;-82
2022/04/07 02:42:33;;;;;;;3.23;2.40;;;16.50;53.80;;;;;;5000035;28;21019;-82
2022/04/07 02:45:01;;;;;;;2.80;2.40;;;16.60;53.80;;;;;;5000270;28;20512;-82
2022/04/07 02:47:32;;;;;;;2.37;2.27;;;16.50;53.80;;;;;;5012409;28;20563;-82
2022/04/07 02:50:02;;;;;;;2.30;2.10;;;16.60;53.90;;;;;;5012503;28;20532;-83
2022/04/07 02:52:30;;;;;;;2.50;2.20;;;16.60;53.90;;;;;;5019060;28;20440;-82
2022/04/07 02:54:58;;;;;;;2.23;2.13;;;16.60;53.90;;;;;;5007063;28;20543;-82
2022/04/07 02:57:30;;;;;;;2.40;2.00;;;16.50;53.80;;;;;;5018281;28;20917;-82
2022/04/07 02:59:59;;;;;;;3.03;2.40;;;16.50;53.90;;;;;;5012513;28;20510;-82
2022/04/07 03:02:27;;;;;;;2.00;1.90;;;16.50;53.90;;;;;;5018689;28;20472;-84
2022/04/07 03:04:55;;;;;;;3.00;2.10;;;16.50;53.80;;;;;;5019012;28;20452;-83
2022/04/07 03:07:25;;;;;;;2.60;2.07;;;16.50;53.90;;;;;;5019143;28;20535;-82
2022/04/07 03:09:53;;;;;;;3.37;2.17;;;16.50;54.00;;;;;;5018336;28;20538;-83
2022/04/07 03:12:21;;;;;;;3.37;1.97;;;16.50;54.00;;;;;;5018606;28;20555;-83
2022/04/07 03:14:49;;;;;;;2.03;1.80;;;16.50;53.90;;;;;;5019130;28;20467;-83
2022/04/07 03:17:17;;;;;;;2.30;1.80;;;16.50;53.90;;;;;;5022530;28;20560;-83
2022/04/07 03:19:45;;;;;;;3.40;1.80;;;16.50;53.90;;;;;;5022969;28;20503;-84
2022/04/07 03:22:15;;;;;;;2.77;2.20;;;16.50;53.90;;;;;;5023257;28;20531;-83
2022/04/07 03:24:45;;;;;;;1.87;1.77;;;16.50;54.00;;;;;;5022402;28;20514;-84
2022/04/07 03:27:13;;;;;;;2.63;2.23;;;16.50;53.90;;;;;;5023007;28;20569;-82
2022/04/07 03:29:41;;;;;;;2.23;2.13;;;16.50;54.00;;;;;;5020462;28;20471;-83
2022/04/07 03:32:09;;;;;;;2.80;2.00;;;16.50;54.00;;;;;;5022201;28;20527;-83
2022/04/07 03:34:37;;;;;;;3.17;1.90;;;16.50;53.90;;;;;;5022561;28;20547;-84
2022/04/07 03:37:05;;;;;;;2.70;2.10;;;16.50;54.00;;;;;;5020860;28;20535;-84
2022/04/07 03:39:33;;;;;;;2.20;2.00;;;16.50;53.90;;;;;;5022351;28;20559;-83
2022/04/07 03:42:03;;;;;;;3.37;2.47;;;16.50;53.90;;;;;;5022328;28;20502;-84
2022/04/07 03:44:31;;;;;;;2.90;2.30;;;16.50;53.80;;;;;;5021944;28;20530;-83
2022/04/07 03:46:59;;;;;;;1.80;1.70;;;16.50;53.80;;;;;;5022267;28;20490;-83
2022/04/07 03:49:27;;;;;;;1.93;1.83;;;16.50;53.90;;;;;;5023084;28;20471;-83
2022/04/07 03:51:55;;;;;;;2.07;1.97;;;16.50;54.40;;;;;;5023100;28;20523;-83
2022/04/07 03:54:23;;;;;;;2.10;2.00;;;16.50;54.00;;;;;;5022509;28;20507;-84
2022/04/07 03:56:51;;;;;;;4.30;1.80;;;16.50;53.80;;;;;;5022642;28;20488;-84
2022/04/07 03:59:20;;;;;;;2.97;2.60;;;16.40;53.80;;;;;;5022430;28;20479;-83
2022/04/07 04:01:48;;;;;;;2.40;2.07;;;16.40;54.00;;;;;;5019989;28;20815;-84
2022/04/07 04:04:20;;;;;;;2.33;1.90;;;16.40;53.80;;;;;;5020763;28;20482;-84
2022/04/07 04:06:48;;;;;;;3.57;1.73;;;16.40;54.00;;;;;;5015824;28;20461;-83
2022/04/07 04:09:16;;;;;;;4.60;2.20;;;16.50;53.80;;;;;;5017447;28;20452;-83
2022/04/07 04:11:44;;;;;;;2.40;1.70;;;16.50;53.90;;;;;;5021958;28;20453;-83
2022/04/07 04:14:12;;;;;;;1.80;1.70;;;16.40;53.80;;;;;;5022936;28;20440;-84
2022/04/07 04:16:42;;;;;;;2.30;2.10;;;16.40;53.80;;;;;;5024295;28;20468;-84
2022/04/07 04:19:10;;;;;;;2.47;2.07;;;16.40;53.70;;;;;;5023283;28;20480;-83
2022/04/07 04:21:38;;;;;;;2.70;2.00;;;16.40;53.90;;;;;;5021649;28;20490;-84
2022/04/07 04:24:07;;;;;;;2.10;1.90;;;16.40;53.90;;;;;;5023036;28;20472;-84
2022/04/07 04:26:35;;;;;;;3.73;2.00;;;16.40;53.90;;;;;;5027540;28;20472;-84
2022/04/07 04:29:03;;;;;;;2.03;1.83;;;16.40;54.00;;;;;;5032477;28;20464;-83
2022/04/07 04:31:31;;;;;;;1.73;1.63;;;16.40;54.00;;;;;;5026563;28;20475;-84
2022/04/07 04:34:01;;;;;;;4.73;2.10;;;16.40;53.90;;;;;;5021033;28;20555;-84
2022/04/07 04:36:29;;;;;;;2.83;1.63;;;16.40;54.00;;;;;;5018490;28;20522;-84
2022/04/07 04:38:57;;;;;;;2.70;1.90;;;16.40;54.00;;;;;;5018803;28;20523;-83
2022/04/07 04:41:25;;;;;;;1.97;1.83;;;16.40;54.00;;;;;;5019828;28;20458;-83
2022/04/07 04:43:54;;;;;;;1.67;1.57;;;16.40;54.00;;;;;;5019485;28;20587;-83
2022/04/07 04:46:22;;;;;;;2.07;1.47;;;16.40;54.00;;;;;;5019565;28;20476;-82
2022/04/07 04:48:51;;;;;;;1.90;1.80;;;16.40;54.00;;;;;;5020242;28;20452;-83
2022/04/07 04:51:20;;;;;;;1.83;1.43;;;16.30;54.10;;;;;;5020538;28;20448;-83
2022/04/07 04:53:48;;;;;;;3.00;1.97;;;16.30;54.10;;;;;;5020568;28;20440;-83
2022/04/07 04:56:16;;;;;;;1.80;1.70;;;16.30;54.10;;;;;;5020613;28;20488;-82
2022/04/07 04:58:44;;;;;;;7.10;2.07;;;16.30;54.20;;;;;;5019415;28;20519;-82
2022/04/07 05:01:12;;;;;;;2.10;1.70;;;16.30;54.20;;;;;;5020672;28;20452;-82
2022/04/07 05:03:40;;;;;;;2.60;1.53;;;16.30;54.20;;;;;;5019265;28;20464;-83
2022/04/07 05:06:08;;;;;;;1.97;1.50;;;16.20;54.20;;;;;;5018995;28;20495;-82
2022/04/07 05:08:37;;;;;;;1.70;1.60;;;16.30;54.30;;;;;;5020053;28;20444;-82
2022/04/07 05:11:05;;;;;;;5.13;1.50;;;16.20;54.20;;;;;;5016455;28;20440;-82
2022/04/07 05:13:33;;;;;;;3.03;1.60;;;16.30;54.30;;;;;;5019558;28;20444;-82
2022/04/07 05:16:01;;;;;;;2.30;1.70;;;16.20;54.20;;;;;;5018887;28;20476;-82
2022/04/07 05:18:29;;;;;;;2.10;1.70;;;16.20;54.30;;;;;;5020253;28;20449;-83
2022/04/07 05:20:57;;;;;;;2.60;1.60;;;16.20;54.30;;;;;;5020417;28;20440;-82
2022/04/07 05:23:28;;;;;;;2.63;1.60;;;16.20;54.30;;;;;;5020108;28;20460;-83
2022/04/07 05:25:58;;;;;;;3.23;1.97;;;16.20;54.20;;;;;;5019864;28;20495;-82
2022/04/07 05:28:26;;;;;;;2.10;1.57;;;16.20;54.20;;;;;;5020012;28;20539;-82
2022/04/07 05:30:54;;;;;;;1.93;1.63;;;16.20;54.30;;;;;;5019306;28;20444;-82
2022/04/07 05:33:22;;;;;;;3.17;1.77;;;16.30;54.30;;;;;;5015377;28;20448;-82
2022/04/07 05:35:51;;;;;;;2.07;1.90;;;16.30;54.20;;;;;;5020426;28;20491;-83
2022/04/07 05:38:19;;;;;;;3.77;1.80;;;16.30;54.20;;;;;;5019487;28;20448;-82
2022/04/07 05:40:47;;;;;;;6.13;1.97;;;16.30;54.30;;;;;;5019474;28;20457;-82
2022/04/07 05:43:16;;;;;;;3.93;1.77;;;16.30;54.10;;;;;;5020075;28;20532;-82
2022/04/07 05:45:45;;;;;;;3.83;1.70;;;16.30;54.20;;;;;;5015086;28;20923;-82
2022/04/07 05:48:13;;;;;;;4.70;2.20;;;16.30;54.20;;;;;;5016795;28;20467;-83
2022/04/07 05:50:41;;;;;;;4.00;1.93;;;16.40;54.20;;;;;;5013960;28;20452;-82
2022/04/07 05:53:10;;;;;;;3.13;2.03;;;16.40;54.10;;;;;;5019214;28;20479;-82
2022/04/07 05:55:38;;;;;;;6.13;2.13;;;16.40;54.00;;;;;;5018459;28;20465;-82
2022/04/07 05:58:07;;;;;;;2.80;1.93;;;16.30;54.00;;;;;;5019641;28;20479;-83
2022/04/07 06:00:37;;;;;;;4.17;1.87;;;16.30;54.00;;;;;;5019393;28;20535;-82
2022/04/07 06:03:05;;;;;;;3.33;1.90;;;16.30;54.10;;;;;;5019605;28;20491;-82
2022/04/07 06:05:35;;;;;;;3.23;1.73;;;16.30;54.10;;;;;;5019596;28;20507;-82
2022/04/07 06:08:03;;;;;;;4.30;2.00;;;16.30;54.10;;;;;;5019019;28;20456;-82
2022/04/07 06:10:31;;;;;;;4.10;2.00;;;16.30;54.00;;;;;;5019607;28;20448;-83
2022/04/07 06:12:59;;;;;;;4.83;2.00;;;16.30;54.00;;;;;;5019116;28;20479;-82
2022/04/07 06:15:28;;;;;;;5.63;2.23;;;16.40;54.20;;;;;;5019098;28;20471;-82
2022/04/07 06:17:57;;;;;;;3.83;1.80;;;16.30;54.10;;;;;;5019291;28;20480;-82
2022/04/07 06:20:25;;;;;;;3.37;2.27;;;16.40;54.10;;;;;;5014847;28;20459;-82
2022/04/07 06:22:53;;;;;;;7.23;2.40;;;16.30;54.00;;;;;;5018008;28;20464;-83
2022/04/07 06:25:21;;;;;;;7.90;2.27;;;16.30;54.10;;;;;;5019342;28;20468;-82
2022/04/07 06:27:49;;;;;;;2.80;2.00;;;16.30;54.10;;;;;;5019028;28;20472;-82
2022/04/07 06:30:18;;;;;;;3.73;2.27;;;16.30;54.20;;;;;;5018792;28;20457;-81
2022/04/07 06:32:46;;;;;;;2.13;2.00;;;16.30;54.20;;;;;;5019240;28;20433;-81
2022/04/07 06:35:16;;;;;;;4.90;2.30;;;16.20;54.20;;;;;;5018545;28;20436;-82
2022/04/07 06:37:46;;;;;;;7.37;2.40;;;16.30;54.40;;;;;;5018964;28;20543;-82
2022/04/07 06:40:14;;;;;;;4.60;2.27;;;16.30;54.40;;;;;;5019195;28;20539;-82
2022/04/07 06:42:42;;;;;;;4.33;2.10;;;16.30;54.40;;;;;;5019068;28;20444;-82
2022/04/07 06:45:10;;;;;;;4.07;1.97;;;16.30;54.40;;;;;;5018902;28;20559;-83
2022/04/07 06:47:38;;;;;;;3.03;1.77;;;16.30;54.40;;;;;;5019271;28;20475;-83
2022/04/07 06:50:08;;;;;;;5.87;2.40;;;16.30;54.40;;;;;;5018777;28;20447;-82
2022/04/07 06:52:37;;;;;;;5.97;2.10;;;16.30;54.50;;;;;;5020562;28;20471;-82
2022/04/07 06:55:06;;;;;;;4.80;2.00;;;16.30;54.50;;;;;;5022692;28;21012;-83
2022/04/07 06:57:51;;;;;;;4.90;2.27;;;16.30;54.50;;;;;;5021904;28;20494;-83
2022/04/07 07:00:19;;;;;;;3.40;2.20;;;16.30;55.20;;;;;;5023079;28;20463;-82
2022/04/07 07:02:47;;;;;;;3.53;1.93;;;16.30;54.50;;;;;;5023383;28;20471;-83
2022/04/07 07:05:16;;;;;;;2.10;1.90;;;16.20;54.60;;;;;;5031881;28;20563;-82
2022/04/07 07:07:45;;;;;;;5.37;2.07;;;16.20;54.60;;;;;;5032174;28;20459;-82
2022/04/07 07:10:20;;;;;;;1.93;1.83;;;16.30;54.70;;;;;;5032152;28;20516;-83
2022/04/07 07:12:48;;;;;;;5.63;2.00;;;16.30;54.70;;;;;;5023727;28;20444;-83
2022/04/07 07:15:16;;;;;;;7.47;2.50;;;16.30;54.60;;;;;;5022181;28;20527;-83
2022/04/07 07:17:44;;;;;;;3.00;2.20;;;16.30;54.60;;;;;;5022517;28;20440;-83
2022/04/07 07:20:12;;;;;;;10.47;2.03;;;16.30;54.70;;;;;;5023834;28;20433;-83
2022/04/07 07:22:41;;;;;;;5.10;2.20;;;16.20;54.60;;;;;;5026719;28;20448;-83
2022/04/07 07:25:11;;;;;;;2.40;1.87;;;16.20;54.70;;;;;;5027741;28;20498;-83
2022/04/07 07:27:39;;;;;;;2.30;1.40;;;16.10;54.60;;;;;;5022827;28;20443;-83
2022/04/07 07:30:09;;;;;;;2.83;1.70;;;16.10;54.70;;;;;;5026047;28;20444;-82
2022/04/07 07:32:37;;;;;;;5.50;2.20;;;16.00;54.70;;;;;;5027366;28;20451;-83
2022/04/07 07:35:05;;;;;;;4.83;1.80;;;16.00;54.70;;;;;;5026727;28;20872;-82
2022/04/07 07:37:33;;;;;;;5.00;1.73;;;16.00;54.90;;;;;;5023997;28;20523;-83
2022/04/07 07:40:04;;;;;;;1.70;1.60;;;16.00;54.90;;;;;;5024514;28;20444;-83
2022/04/07 07:42:36;;;;;;;2.87;1.57;;;15.90;54.80;;;;;;5023972;28;20453;-82
2022/04/07 07:45:05;;;;;;;3.43;2.10;;;15.90;54.80;;;;;;5030755;28;20463;-82
2022/04/07 07:47:33;;;;;;;3.40;1.70;;;15.90;54.80;;;;;;5026425;28;20451;-83
2022/04/07 07:50:01;;;;;;;4.90;1.70;;;15.80;54.80;;;;;;5023175;28;20459;-83
2022/04/07 07:52:29;;;;;;;1.73;1.40;;;15.80;54.90;;;;;;5024437;28;20452;-82
2022/04/07 07:54:58;;;;;;;2.60;1.63;;;15.80;55.00;;;;;;5024868;28;20475;-83
2022/04/07 07:57:26;;;;;;;2.53;1.70;;;15.80;55.00;;;;;;5023754;28;20464;-83
2022/04/07 07:59:55;;;;;;;4.77;1.20;;;15.70;54.80;;;;;;5023374;28;20436;-83
2022/04/07 08:02:24;;;;;;;2.50;1.83;;;15.70;54.80;;;;;;5019670;28;20440;-83
2022/04/07 08:04:52;;;;;;;2.50;1.90;;;15.70;54.80;;;;;;5024663;28;20483;-82
2022/04/07 08:07:21;;;;;;;2.97;1.63;;;15.70;54.70;;;;;;5025187;28;20499;-83
2022/04/07 08:09:50;;;;;;;1.63;1.20;;;15.70;54.60;;;;;;5024014;28;20478;-82
2022/04/07 08:12:17;;;;;;;2.73;1.80;;;15.70;54.80;;;;;;5025504;28;20459;-83
2022/04/07 08:14:46;;;;;;;2.70;1.60;;;15.70;54.70;;;;;;5022931;28;20448;-83
2022/04/07 08:17:21;;;;;;;2.10;1.63;;;15.70;54.60;;;;;;5022371;28;20475;-84
2022/04/07 08:19:49;;;;;;;1.77;1.60;;;15.70;54.60;;;;;;5022013;28;20444;-83
2022/04/07 08:22:17;;;;;;;3.33;1.60;;;15.60;54.60;;;;;;5020866;28;20488;-83
2022/04/07 08:24:45;;;;;;;1.83;1.17;;;15.70;54.70;;;;;;5021184;28;20524;-84
2022/04/07 08:27:14;;;;;;;2.37;1.50;;;15.70;54.60;;;;;;5020966;28;20511;-83
2022/04/07 08:29:42;;;;;;;3.00;1.60;;;15.70;54.70;;;;;;5022148;28;20459;-83
2022/04/07 08:32:11;;;;;;;16.97;1.60;;;15.70;54.60;;;;;;5020725;28;20497;-83
2022/04/07 08:34:40;;;;;;;2.27;1.63;;;15.70;54.60;;;;;;5020929;28;20464;-82
2022/04/07 08:37:08;;;;;;;2.10;1.63;;;15.70;54.60;;;;;;5015848;28;20538;-82
2022/04/07 08:39:37;;;;;;;1.57;1.47;;;15.60;54.50;;;;;;5021163;28;20452;-83
2022/04/07 08:42:06;;;;;;;1.47;1.37;;;15.70;54.50;;;;;;5022029;28;20444;-82
2022/04/07 08:44:37;;;;;;;1.37;1.27;;;15.60;54.40;;;;;;5023671;28;20440;-83
2022/04/07 08:47:05;;;;;;;1.40;1.30;;;15.60;54.50;;;;;;5023130;28;20965;-84
2022/04/07 08:49:34;;;;;;;1.40;1.30;;;15.60;54.40;;;;;;5021730;28;20510;-83
2022/04/07 08:52:03;;;;;;;2.53;1.47;;;15.60;54.40;;;;;;5021093;28;20475;-83
2022/04/07 08:54:32;;;;;;;1.90;1.50;;;15.70;54.50;;;;;;5020300;28;20645;-84
2022/04/07 08:57:00;;;;;;;2.80;1.20;;;15.70;54.40;;;;;;5020719;28;20465;-83
2022/04/07 08:59:33;;;;;;;1.80;1.30;;;15.60;54.40;;;;;;5020021;28;20459;-83
2022/04/07 09:02:02;;;;;;;1.10;1.10;;;15.60;54.30;;;;;;5020530;28;20479;-83
2022/04/07 09:04:30;;;;;;;1.90;1.37;;;15.70;54.30;;;;;;5020310;28;20452;-83
2022/04/07 09:06:59;;;;;;;1.60;1.20;;;15.60;54.30;;;;;;5017701;28;20471;-82
2022/04/07 09:09:28;;;;;;;1.83;1.17;;;15.60;54.30;;;;;;5016062;28;20452;-83
2022/04/07 09:11:56;;;;;;;1.23;1.23;;;15.60;54.20;;;;;;5011564;28;20448;-83
2022/04/07 09:14:25;;;;;;;1.60;1.50;;;15.60;54.30;;;;;;5013053;28;20483;-81
2022/04/07 09:16:54;;;;;;;2.03;1.50;;;15.50;54.20;;;;;;5017472;28;20550;-80
2022/04/07 09:19:22;;;;;;;2.00;1.40;;;15.50;54.10;;;;;;5018440;28;20464;-82
2022/04/07 09:21:51;;;;;;;2.37;1.67;;;15.50;54.20;;;;;;5020235;28;20499;-81
2022/04/07 09:24:19;;;;;;;1.80;1.40;;;15.50;54.10;;;;;;5020731;28;20471;-81
2022/04/07 09:26:49;;;;;;;1.43;1.27;;;15.40;54.10;;;;;;5017425;28;20476;-81
2022/04/07 09:29:17;;;;;;;1.47;1.20;;;15.40;54.20;;;;;;5004761;28;20449;-82
2022/04/07 09:31:52;;;;;;;1.50;1.30;;;15.40;54.00;;;;;;5018677;28;20502;-84
2022/04/07 09:34:30;;;;;;;2.03;1.50;;;15.30;54.00;;;;;;5019420;28;20475;-84
2022/04/07 09:37:14;;;;;;;2.40;1.50;;;15.40;54.00;;;;;;5015569;28;20498;-83
2022/04/07 09:39:43;;;;;;;1.33;1.23;;;15.30;53.90;;;;;;5021833;28;20513;-84
2022/04/07 09:42:23;;;;;;;1.43;1.20;;;15.30;53.80;;;;;;5019494;28;20781;-84
2022/04/07 09:44:53;;;;;;;2.50;1.00;;;15.30;53.90;;;;;;5020741;28;20444;-84
2022/04/07 09:47:21;;;;;;;2.13;1.10;;;15.30;53.90;;;;;;5022507;28;20476;-84
2022/04/07 09:49:49;;;;;;;1.50;1.37;;;15.30;53.80;;;;;;5021482;28;20457;-84
2022/04/07 09:52:21;;;;;;;2.50;1.30;;;15.30;53.80;;;;;;5022110;28;20507;-83
2022/04/07 09:54:51;;;;;;;1.50;1.40;;;15.50;54.10;;;;;;5017887;28;20457;-84
2022/04/07 09:57:21;;;;;;;1.37;1.27;;;15.60;54.00;;;;;;5020330;28;20554;-84
2022/04/07 09:59:49;;;;;;;1.10;1.00;;;15.70;53.60;;;;;;5013588;28;20484;-83
2022/04/07 10:02:18;;;;;;;1.20;1.10;;;15.90;53.60;;;;;;5012698;28;20483;-82
2022/04/07 10:04:47;;;;;;;1.43;1.30;;;16.00;53.30;;;;;;5015779;28;20449;-81
2022/04/07 10:07:15;;;;;;;2.13;1.43;;;16.10;53.10;;;;;;5013033;28;20472;-82
2022/04/07 10:09:46;;;;;;;1.37;1.20;;;16.40;53.20;;;;;;5014128;28;20445;-82
2022/04/07 10:12:24;;;;;;;1.10;1.10;;;16.80;53.20;;;;;;5018631;28;20453;-81
2022/04/07 10:15:10;;;;;;;1.63;1.20;;;17.70;53.00;;;;;;5028703;28;20440;-81
2022/04/07 10:17:39;;;;;;;1.50;1.10;;;18.30;52.20;;;;;;5027944;28;20433;-83
2022/04/07 10:20:08;;;;;;;1.17;1.07;;;18.60;52.20;;;;;;5027117;28;20491;-84
2022/04/07 10:29:00;;;;;;;1.33;1.23;;;18.90;53.90;;;;;;5028719;28;20436;-82
2022/04/07 10:31:41;;;;;;;2.07;1.33;;;19.30;54.10;;;;;;5027358;28;20422;-82
2022/04/07 10:34:42;;;;;;;1.23;1.13;;;19.50;54.40;;;;;;5027288;28;20436;-82
2022/04/07 10:37:11;;;;;;;1.20;1.10;;;19.80;54.60;;;;;;5028774;28;20464;-82
2022/04/07 10:39:41;;;;;;;1.20;1.10;;;20.10;54.00;;;;;;5027938;28;20453;-83
2022/04/07 10:42:09;;;;;;;2.43;1.20;;;20.40;53.80;;;;;;5026186;28;20483;-82
2022/04/07 10:44:39;;;;;;;1.97;1.07;;;20.50;53.70;;;;;;5025217;28;20452;-82
2022/04/07 10:47:09;;;;;;;1.73;1.27;;;20.40;53.60;;;;;;5024513;28;20499;-79
2022/04/07 10:49:39;;;;;;;1.87;1.20;;;20.50;53.70;;;;;;5026518;28;20444;-79
2022/04/07 10:52:09;;;;;;;1.30;1.20;;;20.30;53.80;;;;;;5027938;28;20448;-80
2022/04/07 10:54:37;;;;;;;1.60;1.20;;;20.20;54.20;;;;;;5026319;28;20452;-80
2022/04/07 10:57:09;;;;;;;1.30;1.20;;;20.20;54.20;;;;;;5023389;28;20471;-81
2022/04/07 10:59:42;;;;;;;1.00;0.90;;;20.40;54.30;;;;;;5021563;28;20452;-80
2022/04/07 11:02:12;;;;;;;1.93;1.20;;;20.90;54.30;;;;;;5027130;28;20437;-80
2022/04/07 11:04:58;;;;;;;1.60;1.20;;;21.30;54.10;;;;;;5029670;28;20456;-80
2022/04/07 11:07:26;;;;;;;1.30;0.93;;;21.70;53.40;;;;;;5026651;28;20459;-80
2022/04/07 11:10:13;;;;;;;3.00;1.50;;;21.80;53.20;;;;;;5023718;28;20438;-79
2022/04/07 11:12:44;;;;;;;1.10;1.10;;;22.10;52.90;;;;;;5024105;28;20532;-79
2022/04/07 11:15:30;;;;;;;1.20;1.10;;;22.20;52.80;;;;;;5026096;28;20497;-79
2022/04/07 11:18:02;;;;;;;1.70;1.23;;;22.30;52.80;;;;;;5031539;28;20562;-79
2022/04/07 11:20:30;;;;;;;1.37;1.00;;;22.50;52.60;;;;;;5024507;28;20417;-83
2022/04/07 11:23:01;;;;;;;1.30;1.00;;;22.40;52.40;;;;;;5029912;28;20452;-80
2022/04/07 11:25:30;;;;;;;3.77;1.20;;;22.40;52.30;;;;;;5025860;28;20460;-79
2022/04/07 11:28:10;;;;;;;1.20;1.10;;;22.40;52.00;;;;;;5024558;28;20468;-79
2022/04/07 11:30:41;;;;;;;3.63;1.40;;;23.60;52.10;;;;;;5030062;28;20483;-81
2022/04/07 11:33:36;;;;;;;1.47;1.37;;;23.10;50.60;;;;;;5028331;28;20434;-80
2022/04/07 11:36:38;;;;;;;1.43;1.10;;;22.40;51.60;;;;;;5026009;28;20460;-82
2022/04/07 11:39:15;;;;;;;1.37;1.27;;;21.90;52.70;;;;;;5028409;28;20425;-81
2022/04/07 11:41:47;;;;;;;1.70;1.23;;;21.90;53.40;;;;;;5030456;28;20438;-81
2022/04/07 11:44:17;;;;;;;1.50;1.20;;;22.60;51.80;;;;;;5236137;22;20525;-75
2022/04/07 11:46:46;;;;;;;2.27;1.30;;;23.50;51.70;;;;;;5030253;28;20415;-74
2022/04/07 11:49:15;;;;;;;1.43;1.33;;;24.20;48.40;;;;;;5007246;28;20524;-73
2022/04/07 11:51:45;;;;;;;1.93;1.03;;;23.40;49.50;;;;;;5002516;28;20508;-74
2022/04/07 11:54:16;;;;;;;2.30;1.20;;;22.80;50.40;;;;;;4996942;28;20491;-75
2022/04/07 11:56:44;;;;;;;3.73;1.63;;;22.70;50.80;;;;;;5004333;28;20531;-75
2022/04/07 11:59:12;;;;;;;3.10;1.53;;;22.80;50.30;;;;;;5016484;28;20464;-74
2022/04/07 12:01:42;;;;;;;2.90;1.60;;;23.50;49.50;;;;;;5015336;28;20452;-74
2022/04/07 12:04:12;;;;;;;2.37;1.57;;;23.30;48.90;;;;;;5016511;28;20448;-75
2022/04/07 12:06:45;;;;;;;1.40;1.30;;;23.20;50.70;;;;;;5005060;28;20548;-75
2022/04/07 12:09:14;;;;;;;5.50;1.57;;;26.00;46.80;;;;;;5006187;28;20472;-74
2022/04/07 12:11:42;;;;;;;2.23;1.53;;;26.20;43.50;;;;;;5015682;28;20563;-75
2022/04/07 12:14:11;;;;;;;1.50;1.37;;;25.70;44.90;;;;;;5017686;28;20472;-74
2022/04/07 12:16:43;;;;;;;1.73;1.43;;;25.30;45.60;;;;;;5033423;28;20491;-73
2022/04/07 12:19:13;;;;;;;1.97;1.40;;;24.60;46.40;;;;;;5034760;28;20435;-72
2022/04/07 12:24:16;;;;;;;1.47;1.37;;;23.40;48.20;;;;;;5065932;23;20498;-74
2022/04/07 12:26:45;;;;;;;1.33;1.10;;;22.90;48.60;;;;;;5022368;28;20450;-72
2022/04/07 12:29:14;;;;;;;3.27;1.43;;;22.50;49.20;;;;;;5013451;28;20499;-72
2022/04/07 12:31:42;;;;;;;3.50;1.50;;;22.60;48.60;;;;;;5019042;28;20495;-72
2022/04/07 12:34:11;;;;;;;2.10;1.23;;;23.60;49.50;;;;;;5016526;28;20419;-72
2022/04/07 12:36:41;;;;;;;2.17;1.53;;;26.30;46.00;;;;;;5010579;28;20443;-72
2022/04/07 12:39:10;;;;;;;1.50;1.03;;;28.00;42.90;;;;;;5031384;28;20448;-78
2022/04/07 12:41:39;;;;;;;1.57;1.47;;;29.90;39.40;;;;;;5035587;28;20530;-75
2022/04/07 12:44:07;;;;;;;1.23;1.13;;;31.30;37.00;;;;;;5293752;22;20563;-75
2022/04/07 12:46:46;;;;;;;2.13;1.10;;;32.50;34.90;;;;;;5009986;28;20545;-74
2022/04/07 12:49:14;;;;;;;1.00;1.00;;;33.50;33.80;;;;;;5007052;28;20570;-74
2022/04/07 12:51:43;;;;;;;1.13;1.13;;;34.20;32.20;;;;;;5007635;28;20458;-75
2022/04/07 12:54:13;;;;;;;1.50;1.40;;;34.80;31.50;;;;;;5012766;28;20476;-75
2022/04/07 12:56:41;;;;;;;1.10;1.00;;;35.50;30.40;;;;;;5006026;28;20475;-75
2022/04/07 12:59:10;;;;;;;1.50;1.40;;;35.30;30.40;;;;;;5033744;28;20522;-73
2022/04/07 13:01:38;;;;;;;1.23;1.17;;;35.20;30.00;;;;;;5034920;28;20471;-74
2022/04/07 13:04:08;;;;;;;1.37;1.23;;;33.60;30.20;;;;;;5024199;28;20459;-73
2022/04/07 13:06:37;;;;;;;1.73;1.63;;;31.60;32.70;;;;;;5022093;28;20455;-73
2022/04/07 13:09:07;;;;;;;2.10;1.50;;;30.10;34.80;;;;;;5015491;28;20472;-78
2022/04/07 13:11:36;;;;;;;3.57;1.50;;;28.90;36.70;;;;;;5015206;28;20448;-77
2022/04/07 13:14:04;;;;;;;4.30;1.77;;;27.90;38.30;;;;;;5011842;28;20447;-73
2022/04/07 13:16:32;;;;;;;1.93;1.70;;;27.10;39.50;;;;;;5008590;28;20447;-73
2022/04/07 13:19:00;;;;;;;2.10;1.60;;;26.30;40.60;;;;;;5014342;28;20411;-73
2022/04/07 13:21:28;;;;;;;3.07;1.50;;;25.70;41.70;;;;;;4995219;28;20449;-73
2022/04/07 13:23:56;;;;;;;1.60;1.50;;;25.90;42.60;;;;;;5011267;28;20466;-73